createdAt,value
2019-06-20T00:00:54.292Z,12.79
2019-06-20T00:01:54.257Z,12.73
2019-06-20T00:02:54.233Z,12.74
2019-06-20T00:03:54.208Z,12.71
2019-06-20T00:04:54.201Z,12.67
2019-06-20T00:05:54.179Z,12.70
2019-06-20T00:06:54.231Z,12.70
2019-06-20T00:07:54.169Z,12.69
2019-06-20T00:08:54.150Z,12.63
2019-06-20T00:09:54.148Z,12.74
2019-06-20T00:10:54.139Z,12.94
2019-06-20T00:11:54.119Z,12.84
2019-06-20T00:13:00.465Z,12.74
2019-06-20T00:13:55.103Z,12.77
2019-06-20T00:14:54.092Z,12.79
2019-06-20T00:15:54.083Z,12.73
2019-06-20T00:16:54.069Z,12.69
2019-06-20T00:17:54.055Z,12.63
2019-06-20T00:18:54.078Z,12.56
2019-06-20T00:19:54.045Z,12.55
2019-06-20T00:20:54.047Z,12.54
2019-06-20T00:21:54.018Z,12.46
2019-06-20T00:22:54.057Z,12.54
2019-06-20T00:23:53.997Z,12.56
2019-06-20T00:24:54.017Z,12.56
2019-06-20T00:25:53.969Z,12.61
2019-06-20T00:26:53.958Z,12.69
2019-06-20T00:27:53.948Z,12.66
2019-06-20T00:28:53.937Z,12.63
2019-06-20T00:29:53.938Z,12.63
2019-06-20T00:30:53.948Z,12.61
2019-06-20T00:31:53.928Z,12.62
2019-06-20T00:32:53.895Z,12.66
2019-06-20T00:33:53.905Z,12.63
2019-06-20T00:34:53.865Z,12.61
2019-06-20T00:35:53.866Z,12.55
2019-06-20T00:36:53.905Z,12.56
2019-06-20T00:37:53.837Z,12.56
2019-06-20T00:38:53.826Z,12.62
2019-06-20T00:39:53.814Z,12.70
2019-06-20T00:40:53.823Z,12.71
2019-06-20T00:41:53.834Z,12.70
2019-06-20T00:42:53.816Z,12.67
2019-06-20T00:43:53.766Z,12.66
2019-06-20T00:44:53.776Z,12.66
2019-06-20T00:45:53.754Z,12.73
2019-06-20T00:46:53.739Z,12.79
2019-06-20T00:47:53.861Z,12.80
2019-06-20T00:48:53.751Z,12.84
2019-06-20T00:49:53.747Z,12.84
2019-06-20T00:50:53.684Z,12.87
2019-06-20T00:51:53.687Z,12.84
2019-06-20T00:52:53.711Z,12.79
2019-06-20T00:53:53.653Z,12.76
2019-06-20T00:54:53.645Z,12.92
2019-06-20T00:55:53.633Z,12.94
2019-06-20T00:56:53.652Z,12.92
2019-06-20T00:57:53.617Z,12.91
2019-06-20T00:58:53.644Z,12.84
2019-06-20T00:59:53.592Z,12.80
2019-06-20T01:00:53.622Z,12.77
2019-06-20T01:01:53.572Z,12.84
2019-06-20T01:02:53.592Z,12.88
2019-06-20T01:03:53.562Z,12.91
2019-06-20T01:04:53.570Z,12.87
2019-06-20T01:05:53.523Z,12.85
2019-06-20T01:06:53.510Z,12.80
2019-06-20T01:07:53.553Z,12.79
2019-06-20T01:08:53.509Z,12.79
2019-06-20T01:09:53.483Z,12.79
2019-06-20T01:10:53.470Z,12.79
2019-06-20T01:11:53.462Z,12.76
2019-06-20T01:12:53.451Z,12.73
2019-06-20T01:13:53.469Z,12.73
2019-06-20T01:14:53.573Z,12.73
2019-06-20T01:15:53.423Z,12.74
2019-06-20T01:16:53.418Z,12.74
2019-06-20T01:17:53.431Z,12.73
2019-06-20T01:18:53.576Z,12.76
2019-06-20T01:19:53.400Z,12.79
2019-06-20T01:20:53.362Z,12.80
2019-06-20T01:21:53.350Z,12.81
2019-06-20T01:22:53.391Z,12.85
2019-06-20T01:23:53.367Z,12.81
2019-06-20T01:24:53.311Z,12.80
2019-06-20T01:25:53.408Z,12.77
2019-06-20T01:26:53.297Z,12.77
2019-06-20T01:27:53.279Z,12.80
2019-06-20T01:28:53.299Z,12.81
2019-06-20T01:29:53.314Z,12.80
2019-06-20T01:30:53.241Z,12.80
2019-06-20T01:31:53.267Z,12.80
2019-06-20T01:32:53.228Z,12.80
2019-06-20T01:33:53.210Z,12.80
2019-06-20T01:34:53.209Z,12.81
2019-06-20T01:35:53.227Z,12.89
2019-06-20T01:36:53.187Z,13.01
2019-06-20T01:37:53.178Z,13.14
2019-06-20T01:38:53.170Z,13.24
2019-06-20T01:39:53.158Z,13.22
2019-06-20T01:40:53.183Z,13.17
2019-06-20T01:41:53.134Z,13.14
2019-06-20T01:42:53.150Z,13.17
2019-06-20T01:43:53.108Z,13.14
2019-06-20T01:44:53.088Z,13.14
2019-06-20T01:45:53.085Z,13.13
2019-06-20T01:46:53.069Z,13.14
2019-06-20T01:47:53.063Z,13.29
2019-06-20T01:48:53.085Z,13.28
2019-06-20T01:49:53.078Z,13.25
2019-06-20T01:50:53.091Z,13.25
2019-06-20T01:51:53.023Z,13.22
2019-06-20T01:52:53.007Z,13.17
2019-06-20T01:53:53.084Z,13.12
2019-06-20T01:54:52.983Z,13.09
2019-06-20T01:55:53.014Z,13.04
2019-06-20T01:56:52.963Z,12.98
2019-06-20T01:57:52.978Z,12.92
2019-06-20T01:58:52.937Z,12.87
2019-06-20T01:59:52.925Z,12.79
2019-06-20T02:00:52.914Z,12.77
2019-06-20T02:01:52.944Z,12.76
2019-06-20T02:02:52.899Z,12.71
2019-06-20T02:03:53.025Z,12.69
2019-06-20T02:04:52.871Z,12.63
2019-06-20T02:05:52.863Z,12.59
2019-06-20T02:06:52.865Z,12.55
2019-06-20T02:07:52.873Z,12.52
2019-06-20T02:08:52.863Z,12.51
2019-06-20T02:09:52.894Z,12.49
2019-06-20T02:10:52.812Z,12.46
2019-06-20T02:11:52.793Z,12.43
2019-06-20T02:12:52.808Z,12.40
2019-06-20T02:14:06.485Z,12.36
2019-06-20T02:14:53.794Z,12.34
2019-06-20T02:15:52.749Z,12.30
2019-06-20T02:16:52.742Z,12.29
2019-06-20T02:17:52.735Z,12.25
2019-06-20T02:18:52.722Z,12.22
2019-06-20T02:19:52.728Z,12.23
2019-06-20T02:20:52.732Z,12.22
2019-06-20T02:21:52.684Z,12.23
2019-06-20T02:22:52.670Z,12.22
2019-06-20T02:23:52.662Z,12.23
2019-06-20T02:24:52.660Z,12.25
2019-06-20T02:25:52.646Z,12.25
2019-06-20T02:26:52.671Z,12.25
2019-06-20T02:27:52.626Z,12.30
2019-06-20T02:28:52.608Z,12.31
2019-06-20T02:29:52.590Z,12.31
2019-06-20T02:30:52.579Z,12.31
2019-06-20T02:31:52.715Z,12.37
2019-06-20T02:32:52.594Z,12.38
2019-06-20T02:33:52.553Z,12.46
2019-06-20T02:34:52.572Z,12.51
2019-06-20T02:35:52.538Z,12.54
2019-06-20T02:36:52.559Z,12.52
2019-06-20T02:37:52.519Z,12.55
2019-06-20T02:38:52.506Z,12.56
2019-06-20T02:39:52.487Z,12.56
2019-06-20T02:40:52.469Z,12.58
2019-06-20T02:41:52.470Z,12.56
2019-06-20T02:42:52.489Z,12.58
2019-06-20T02:43:52.438Z,12.58
2019-06-20T02:44:52.459Z,12.59
2019-06-20T02:45:52.419Z,12.62
2019-06-20T02:46:52.411Z,12.63
2019-06-20T02:47:52.397Z,12.66
2019-06-20T02:48:52.388Z,12.67
2019-06-20T02:49:52.406Z,12.67
2019-06-20T02:50:52.367Z,12.69
2019-06-20T02:51:52.358Z,12.69
2019-06-20T02:52:52.351Z,12.69
2019-06-20T02:53:52.366Z,12.71
2019-06-20T02:54:52.357Z,12.73
2019-06-20T02:55:52.323Z,12.74
2019-06-20T02:56:52.297Z,12.77
2019-06-20T02:57:52.296Z,12.80
2019-06-20T02:58:52.276Z,12.77
2019-06-20T02:59:52.295Z,12.76
2019-06-20T03:00:52.287Z,12.77
2019-06-20T03:01:52.246Z,12.77
2019-06-20T03:02:52.295Z,12.77
2019-06-20T03:03:52.224Z,12.77
2019-06-20T03:04:52.272Z,12.76
2019-06-20T03:05:52.197Z,12.74
2019-06-20T03:06:52.193Z,12.71
2019-06-20T03:07:52.174Z,12.70
2019-06-20T03:08:52.167Z,12.67
2019-06-20T03:09:52.160Z,12.66
2019-06-20T03:10:52.199Z,12.63
2019-06-20T03:11:52.205Z,12.62
2019-06-20T03:12:52.136Z,12.61
2019-06-20T03:13:52.111Z,12.58
2019-06-20T03:14:52.118Z,12.59
2019-06-20T03:15:52.091Z,12.59
2019-06-20T03:16:52.112Z,12.56
2019-06-20T03:17:52.063Z,12.54
2019-06-20T03:18:52.063Z,12.51
2019-06-20T03:19:52.083Z,12.51
2019-06-20T03:20:52.039Z,12.46
2019-06-20T03:21:52.083Z,12.44
2019-06-20T03:22:52.010Z,12.43
2019-06-20T03:23:52.043Z,12.37
2019-06-20T03:24:52.006Z,12.38
2019-06-20T03:25:52.029Z,12.36
2019-06-20T03:26:51.962Z,12.34
2019-06-20T03:27:52.050Z,12.30
2019-06-20T03:28:51.941Z,12.29
2019-06-20T03:29:51.932Z,12.29
2019-06-20T03:30:52.045Z,12.26
2019-06-20T03:31:51.963Z,12.33
2019-06-20T03:32:51.941Z,12.37
2019-06-20T03:33:51.893Z,12.37
2019-06-20T03:34:51.881Z,12.36
2019-06-20T03:35:51.861Z,12.34
2019-06-20T03:36:51.859Z,12.33
2019-06-20T03:37:51.891Z,12.29
2019-06-20T03:38:51.829Z,12.23
2019-06-20T03:39:51.823Z,12.21
2019-06-20T03:40:51.850Z,12.18
2019-06-20T03:41:51.800Z,12.15
2019-06-20T03:42:51.786Z,12.08
2019-06-20T03:43:51.780Z,12.07
2019-06-20T03:45:01.718Z,12.05
2019-06-20T03:45:52.802Z,12.01
2019-06-20T03:46:51.746Z,12.01
2019-06-20T03:47:51.738Z,11.98
2019-06-20T03:48:51.725Z,11.90
2019-06-20T03:49:51.711Z,11.90
2019-06-20T03:50:51.697Z,11.87
2019-06-20T03:51:51.858Z,11.87
2019-06-20T03:52:51.678Z,11.88
2019-06-20T03:53:51.667Z,11.90
2019-06-20T03:54:51.659Z,11.93
2019-06-20T03:55:51.658Z,11.96
2019-06-20T03:56:51.678Z,11.97
2019-06-20T03:57:51.619Z,11.93
2019-06-20T03:58:51.704Z,11.94
2019-06-20T03:59:51.597Z,11.93
2019-06-20T04:00:51.586Z,11.93
2019-06-20T04:01:51.689Z,11.93
2019-06-20T04:02:51.593Z,11.98
2019-06-20T04:03:51.556Z,11.98
2019-06-20T04:04:51.576Z,12.00
2019-06-20T04:05:51.535Z,12.03
2019-06-20T04:06:51.530Z,12.04
2019-06-20T04:07:51.526Z,12.04
2019-06-20T04:08:51.522Z,12.07
2019-06-20T04:09:51.498Z,12.04
2019-06-20T04:10:51.555Z,12.03
2019-06-20T04:11:51.465Z,12.04
2019-06-20T04:12:51.453Z,12.05
2019-06-20T04:13:51.444Z,12.07
2019-06-20T04:14:51.434Z,12.07
2019-06-20T04:15:51.421Z,12.12
2019-06-20T04:16:51.445Z,12.13
2019-06-20T04:17:51.394Z,12.18
2019-06-20T04:18:51.387Z,12.18
2019-06-20T04:19:51.374Z,12.18
2019-06-20T04:20:51.411Z,12.18
2019-06-20T04:21:51.366Z,12.21
2019-06-20T04:22:51.360Z,12.23
2019-06-20T04:23:51.334Z,12.23
2019-06-20T04:24:51.332Z,12.23
2019-06-20T04:25:51.313Z,12.29
2019-06-20T04:26:51.344Z,12.33
2019-06-20T04:27:51.319Z,12.40
2019-06-20T04:28:51.279Z,12.43
2019-06-20T04:29:51.273Z,12.44
2019-06-20T04:30:51.271Z,12.56
2019-06-20T04:31:51.300Z,12.91
2019-06-20T04:32:51.242Z,13.31
2019-06-20T04:33:51.225Z,13.65
2019-06-20T04:34:51.221Z,13.88
2019-06-20T04:35:51.201Z,14.09
2019-06-20T04:36:51.189Z,14.23
2019-06-20T04:37:51.220Z,14.42
2019-06-20T04:38:51.207Z,14.52
2019-06-20T04:39:51.174Z,14.72
2019-06-20T04:40:51.190Z,14.93
2019-06-20T04:41:51.142Z,15.01
2019-06-20T04:42:51.121Z,14.98
2019-06-20T04:43:51.110Z,14.94
2019-06-20T04:44:51.100Z,14.98
2019-06-20T04:45:51.141Z,15.18
2019-06-20T04:46:51.099Z,15.41
2019-06-20T04:47:51.068Z,15.40
2019-06-20T04:48:51.120Z,15.27
2019-06-20T04:49:51.041Z,15.22
2019-06-20T04:50:51.089Z,15.18
2019-06-20T04:51:51.031Z,15.28
2019-06-20T04:52:51.123Z,15.33
2019-06-20T04:53:50.999Z,15.40
2019-06-20T04:54:50.989Z,15.40
2019-06-20T04:55:50.991Z,15.46
2019-06-20T04:56:51.000Z,15.31
2019-06-20T04:57:50.959Z,15.15
2019-06-20T04:58:50.961Z,15.19
2019-06-20T04:59:50.937Z,15.31
2019-06-20T05:00:50.972Z,15.56
2019-06-20T05:01:50.921Z,15.67
2019-06-20T05:02:50.909Z,15.55
2019-06-20T05:03:50.912Z,15.33
2019-06-20T05:04:50.878Z,14.80
2019-06-20T05:05:50.877Z,14.80
2019-06-20T05:06:50.898Z,14.83
2019-06-20T05:07:50.873Z,14.79
2019-06-20T05:08:50.845Z,14.86
2019-06-20T05:09:50.826Z,14.85
2019-06-20T05:10:50.858Z,15.01
2019-06-20T05:11:50.806Z,15.23
2019-06-20T05:12:50.826Z,15.37
2019-06-20T05:13:50.789Z,15.33
2019-06-20T05:14:51.556Z,15.15
2019-06-20T05:15:52.987Z,15.16
2019-06-20T05:16:50.775Z,15.19
2019-06-20T05:17:50.779Z,15.27
2019-06-20T05:18:50.790Z,15.49
2019-06-20T05:19:50.721Z,15.70
2019-06-20T05:20:50.876Z,15.93
2019-06-20T05:21:50.696Z,15.93
2019-06-20T05:22:50.683Z,15.85
2019-06-20T05:23:50.707Z,15.64
2019-06-20T05:24:50.715Z,15.80
2019-06-20T05:25:50.815Z,16.07
2019-06-20T05:26:50.645Z,15.96
2019-06-20T05:27:50.644Z,16.17
2019-06-20T05:28:50.622Z,16.10
2019-06-20T05:29:50.604Z,15.91
2019-06-20T05:30:50.643Z,15.74
2019-06-20T05:31:50.584Z,16.08
2019-06-20T05:32:50.595Z,16.41
2019-06-20T05:33:50.567Z,16.04
2019-06-20T05:34:50.571Z,15.77
2019-06-20T05:35:50.603Z,15.73
2019-06-20T05:36:50.534Z,15.70
2019-06-20T05:37:50.526Z,15.68
2019-06-20T05:38:50.513Z,15.46
2019-06-20T05:39:50.519Z,15.37
2019-06-20T05:40:50.483Z,15.38
2019-06-20T05:41:50.515Z,15.59
2019-06-20T05:42:50.543Z,15.85
2019-06-20T05:43:50.457Z,15.96
2019-06-20T05:44:50.443Z,16.04
2019-06-20T05:45:50.473Z,15.84
2019-06-20T05:46:50.424Z,15.41
2019-06-20T05:47:50.410Z,15.28
2019-06-20T05:48:50.458Z,15.33
2019-06-20T05:49:50.424Z,15.28
2019-06-20T05:50:50.373Z,15.22
2019-06-20T05:51:50.367Z,15.16
2019-06-20T05:52:50.350Z,15.18
2019-06-20T05:53:50.353Z,15.23
2019-06-20T05:54:50.392Z,15.19
2019-06-20T05:55:50.476Z,15.11
2019-06-20T05:56:50.310Z,15.07
2019-06-20T05:57:50.351Z,15.07
2019-06-20T05:58:50.624Z,15.07
2019-06-20T05:59:50.285Z,15.13
2019-06-20T06:00:50.262Z,15.13
2019-06-20T06:01:50.258Z,15.09
2019-06-20T06:02:50.480Z,14.93
2019-06-20T06:03:51.259Z,14.79
2019-06-20T06:04:50.221Z,14.80
2019-06-20T06:05:50.212Z,14.87
2019-06-20T06:06:50.190Z,14.95
2019-06-20T06:07:50.187Z,14.91
2019-06-20T06:08:50.186Z,14.87
2019-06-20T06:09:50.221Z,14.80
2019-06-20T06:10:50.202Z,14.83
2019-06-20T06:11:50.152Z,14.87
2019-06-20T06:12:50.129Z,14.93
2019-06-20T06:13:50.237Z,14.91
2019-06-20T06:14:50.099Z,14.90
2019-06-20T06:15:50.637Z,14.87
2019-06-20T06:16:50.220Z,14.86
2019-06-20T06:17:50.077Z,14.87
2019-06-20T06:18:50.067Z,14.85
2019-06-20T06:19:50.111Z,14.63
2019-06-20T06:20:50.096Z,14.44
2019-06-20T06:21:50.064Z,14.31
2019-06-20T06:22:50.057Z,14.29
2019-06-20T06:23:50.008Z,14.23
2019-06-20T06:24:49.999Z,14.19
2019-06-20T06:25:49.987Z,14.19
2019-06-20T06:26:50.007Z,14.17
2019-06-20T06:27:49.982Z,14.16
2019-06-20T06:28:49.949Z,14.12
2019-06-20T06:29:49.941Z,14.08
2019-06-20T06:30:49.937Z,14.06
2019-06-20T06:31:49.956Z,14.08
2019-06-20T06:32:49.908Z,14.16
2019-06-20T06:33:49.895Z,14.29
2019-06-20T06:34:49.887Z,14.46
2019-06-20T06:35:49.874Z,14.67
2019-06-20T06:36:49.948Z,14.71
2019-06-20T06:37:49.857Z,14.63
2019-06-20T06:38:49.842Z,14.57
2019-06-20T06:39:49.841Z,14.59
2019-06-20T06:40:49.816Z,14.57
2019-06-20T06:41:49.953Z,14.69
2019-06-20T06:42:49.865Z,14.78
2019-06-20T06:43:49.821Z,14.87
2019-06-20T06:44:49.954Z,14.97
2019-06-20T06:45:49.767Z,15.15
2019-06-20T06:46:54.387Z,15.38
2019-06-20T06:47:50.782Z,15.84
2019-06-20T06:48:49.735Z,16.44
2019-06-20T06:49:49.747Z,16.77
2019-06-20T06:50:49.801Z,16.80
2019-06-20T06:51:49.717Z,16.95
2019-06-20T06:52:49.733Z,16.77
2019-06-20T06:53:49.692Z,16.44
2019-06-20T06:54:49.665Z,16.63
2019-06-20T06:55:49.648Z,16.88
2019-06-20T06:56:49.652Z,17.21
2019-06-20T06:57:49.634Z,17.28
2019-06-20T06:58:49.664Z,17.47
2019-06-20T06:59:49.632Z,17.70
2019-06-20T07:00:49.593Z,17.80
2019-06-20T07:01:49.584Z,17.95
2019-06-20T07:02:49.583Z,18.23
2019-06-20T07:03:49.562Z,18.59
2019-06-20T07:04:49.656Z,18.84
2019-06-20T07:05:49.650Z,18.99
2019-06-20T07:06:49.535Z,18.47
2019-06-20T07:07:49.513Z,17.81
2019-06-20T07:08:49.512Z,17.36
2019-06-20T07:09:49.506Z,17.06
2019-06-20T07:10:49.542Z,16.95
2019-06-20T07:11:49.488Z,17.00
2019-06-20T07:12:49.464Z,16.82
2019-06-20T07:13:49.475Z,16.82
2019-06-20T07:14:49.452Z,16.69
2019-06-20T07:15:49.441Z,16.55
2019-06-20T07:16:59.785Z,16.45
2019-06-20T07:17:50.443Z,16.34
2019-06-20T07:18:49.402Z,16.26
2019-06-20T07:19:49.397Z,16.23
2019-06-20T07:20:49.389Z,16.22
2019-06-20T07:21:49.373Z,16.13
2019-06-20T07:22:49.387Z,16.14
2019-06-20T07:23:49.383Z,16.10
2019-06-20T07:24:49.331Z,16.08
2019-06-20T07:25:49.335Z,15.96
2019-06-20T07:26:49.324Z,15.92
2019-06-20T07:27:49.302Z,15.95
2019-06-20T07:28:51.492Z,16.03
2019-06-20T07:29:49.435Z,15.95
2019-06-20T07:30:49.271Z,15.91
2019-06-20T07:31:49.283Z,15.84
2019-06-20T07:32:49.248Z,15.84
2019-06-20T07:33:49.280Z,15.84
2019-06-20T07:34:49.231Z,15.78
2019-06-20T07:35:49.233Z,15.78
2019-06-20T07:36:49.219Z,15.86
2019-06-20T07:37:49.198Z,15.84
2019-06-20T07:38:49.181Z,15.91
2019-06-20T07:39:49.221Z,15.96
2019-06-20T07:40:49.160Z,15.89
2019-06-20T07:41:49.150Z,15.80
2019-06-20T07:42:49.198Z,15.67
2019-06-20T07:43:49.128Z,15.58
2019-06-20T07:44:49.111Z,15.52
2019-06-20T07:46:02.177Z,15.48
2019-06-20T07:46:50.087Z,15.41
2019-06-20T07:47:49.079Z,15.43
2019-06-20T07:48:49.068Z,15.53
2019-06-20T07:49:49.063Z,15.48
2019-06-20T07:50:49.052Z,15.49
2019-06-20T07:51:49.092Z,15.49
2019-06-20T07:53:01.374Z,15.55
2019-06-20T07:53:50.015Z,15.56
2019-06-20T07:54:48.999Z,15.58
2019-06-20T07:55:48.990Z,15.55
2019-06-20T07:56:48.989Z,15.53
2019-06-20T07:57:49.016Z,15.60
2019-06-20T07:58:48.959Z,15.68
2019-06-20T07:59:48.968Z,15.70
2019-06-20T08:00:48.938Z,15.67
2019-06-20T08:01:48.929Z,15.60
2019-06-20T08:02:48.912Z,15.60
2019-06-20T08:03:48.940Z,15.62
2019-06-20T08:04:48.888Z,15.59
2019-06-20T08:05:48.882Z,15.62
2019-06-20T08:06:48.884Z,15.62
2019-06-20T08:07:48.898Z,15.60
2019-06-20T08:08:48.858Z,15.64
2019-06-20T08:09:49.833Z,15.66
2019-06-20T08:10:48.826Z,15.66
2019-06-20T08:11:48.817Z,15.64
2019-06-20T08:12:48.873Z,15.67
2019-06-20T08:13:48.813Z,15.64
2019-06-20T08:14:48.784Z,15.59
2019-06-20T08:15:48.839Z,15.64
2019-06-20T08:16:48.757Z,15.59
2019-06-20T08:17:48.798Z,15.52
2019-06-20T08:18:48.766Z,15.51
2019-06-20T08:19:48.739Z,15.48
2019-06-20T08:20:48.715Z,15.41
2019-06-20T08:21:48.707Z,15.35
2019-06-20T08:22:48.738Z,15.35
2019-06-20T08:23:48.677Z,15.30
2019-06-20T08:24:48.671Z,15.27
2019-06-20T08:25:48.652Z,15.22
2019-06-20T08:26:48.663Z,15.19
2019-06-20T08:27:48.659Z,15.04
2019-06-20T08:28:48.714Z,15.04
2019-06-20T08:29:48.616Z,15.05
2019-06-20T08:30:48.607Z,15.07
2019-06-20T08:31:48.638Z,15.11
2019-06-20T08:32:57.413Z,15.04
2019-06-20T08:33:48.575Z,15.00
2019-06-20T08:34:48.928Z,14.94
2019-06-20T08:35:48.605Z,14.94
2019-06-20T08:36:48.537Z,14.95
2019-06-20T08:37:48.651Z,14.94
2019-06-20T08:38:48.509Z,14.87
2019-06-20T08:39:48.498Z,14.86
2019-06-20T08:40:48.548Z,14.85
2019-06-20T08:41:48.478Z,14.87
2019-06-20T08:42:48.470Z,14.97
2019-06-20T08:43:48.460Z,15.09
2019-06-20T08:44:48.448Z,15.09
2019-06-20T08:45:48.485Z,15.11
2019-06-20T08:46:48.468Z,15.16
2019-06-20T08:47:48.418Z,15.20
2019-06-20T08:48:48.417Z,15.19
2019-06-20T08:49:48.387Z,15.27
2019-06-20T08:50:48.430Z,15.27
2019-06-20T08:51:48.413Z,15.35
2019-06-20T08:52:48.360Z,15.44
2019-06-20T08:53:48.377Z,15.71
2019-06-20T08:54:48.337Z,15.96
2019-06-20T08:55:48.363Z,16.11
2019-06-20T08:56:48.364Z,16.14
2019-06-20T08:57:48.298Z,16.11
2019-06-20T08:58:48.301Z,16.08
2019-06-20T08:59:48.324Z,16.04
2019-06-20T09:00:48.267Z,15.95
2019-06-20T09:01:48.256Z,15.91
2019-06-20T09:02:48.605Z,15.80
2019-06-20T09:03:48.235Z,15.68
2019-06-20T09:04:48.226Z,15.66
2019-06-20T09:05:48.255Z,15.67
2019-06-20T09:06:50.136Z,15.56
2019-06-20T09:07:48.196Z,15.55
2019-06-20T09:08:48.243Z,15.35
2019-06-20T09:09:48.173Z,15.23
2019-06-20T09:10:48.157Z,15.13
2019-06-20T09:11:48.203Z,15.04
2019-06-20T09:12:49.000Z,15.13
2019-06-20T09:13:55.489Z,15.15
2019-06-20T09:14:48.127Z,15.15
2019-06-20T09:15:48.147Z,15.07
2019-06-20T09:16:48.125Z,15.04
2019-06-20T09:17:48.087Z,14.98
2019-06-20T09:18:48.082Z,14.90
2019-06-20T09:19:48.069Z,14.79
2019-06-20T09:20:48.047Z,14.78
2019-06-20T09:21:48.087Z,14.83
2019-06-20T09:22:48.027Z,14.61
2019-06-20T09:23:48.027Z,14.60
2019-06-20T09:24:48.011Z,14.59
2019-06-20T09:25:47.987Z,14.35
2019-06-20T09:26:47.987Z,14.23
2019-06-20T09:27:48.014Z,14.13
2019-06-20T09:28:59.887Z,14.16
2019-06-20T09:29:47.946Z,14.12
2019-06-20T09:30:48.872Z,13.99
2019-06-20T09:31:48.045Z,13.87
2019-06-20T09:32:47.915Z,13.79
2019-06-20T09:33:48.790Z,13.79
2019-06-20T09:34:47.906Z,13.83
2019-06-20T09:35:47.927Z,13.79
2019-06-20T09:36:47.903Z,13.80
2019-06-20T09:37:47.873Z,13.84
2019-06-20T09:38:48.516Z,13.76
2019-06-20T09:39:47.863Z,13.71
2019-06-20T09:40:47.833Z,13.65
2019-06-20T09:41:47.875Z,13.66
2019-06-20T09:42:54.890Z,13.63
2019-06-20T09:43:47.802Z,13.57
2019-06-20T09:44:47.830Z,13.55
2019-06-20T09:45:47.779Z,13.55
2019-06-20T09:46:47.770Z,13.50
2019-06-20T09:47:47.750Z,13.53
2019-06-20T09:48:47.741Z,13.53
2019-06-20T09:49:50.500Z,13.51
2019-06-20T09:50:49.385Z,13.54
2019-06-20T09:51:49.146Z,13.55
2019-06-20T09:52:49.765Z,13.53
2019-06-20T09:53:48.576Z,13.43
2019-06-20T09:54:49.847Z,13.39
2019-06-20T09:55:48.861Z,13.35
2019-06-20T09:56:50.299Z,13.35
2019-06-20T09:57:49.218Z,13.39
2019-06-20T09:58:48.314Z,13.41
2019-06-20T09:59:59.121Z,13.46
2019-06-20T10:00:49.276Z,13.47
2019-06-20T10:01:48.215Z,13.46
2019-06-20T10:02:48.933Z,13.47
2019-06-20T10:03:48.900Z,13.51
2019-06-20T10:04:49.195Z,13.47
2019-06-20T10:05:48.927Z,13.50
2019-06-20T10:06:48.676Z,13.51
2019-06-20T10:07:48.722Z,13.54
2019-06-20T10:08:48.289Z,13.50
2019-06-20T10:09:48.222Z,13.44
2019-06-20T10:10:49.335Z,13.47
2019-06-20T10:11:47.979Z,13.48
2019-06-20T10:12:47.988Z,13.47
2019-06-20T10:13:48.187Z,13.39
2019-06-20T10:14:48.094Z,13.41
2019-06-20T10:15:47.948Z,13.43
2019-06-20T10:16:50.430Z,13.46
2019-06-20T10:17:48.519Z,13.50
2019-06-20T10:18:48.479Z,13.53
2019-06-20T10:19:48.389Z,13.51
2019-06-20T10:20:48.792Z,13.50
2019-06-20T10:21:47.860Z,13.38
2019-06-20T10:22:48.475Z,13.35
2019-06-20T10:23:47.726Z,13.27
2019-06-20T10:24:47.471Z,13.25
2019-06-20T10:25:47.808Z,13.22
2019-06-20T10:26:47.955Z,13.17
2019-06-20T10:27:48.312Z,13.17
2019-06-20T10:28:47.651Z,13.16
2019-06-20T10:29:47.848Z,13.17
2019-06-20T10:30:47.323Z,13.19
2019-06-20T10:31:48.743Z,13.14
2019-06-20T10:32:48.580Z,13.12
2019-06-20T10:33:48.397Z,13.19
2019-06-20T10:34:48.291Z,13.25
2019-06-20T10:35:48.361Z,13.27
2019-06-20T10:36:48.148Z,13.31
2019-06-20T10:37:48.352Z,13.36
2019-06-20T10:38:48.028Z,13.41
2019-06-20T10:39:47.767Z,13.39
2019-06-20T10:40:47.968Z,13.22
2019-06-20T10:41:48.471Z,13.22
2019-06-20T10:42:48.118Z,13.25
2019-06-20T10:43:47.583Z,13.19
2019-06-20T10:44:47.670Z,13.17
2019-06-20T10:45:47.400Z,13.24
2019-06-20T10:46:47.303Z,13.29
2019-06-20T10:47:47.590Z,13.36
2019-06-20T10:48:47.972Z,13.35
2019-06-20T10:49:47.801Z,13.38
2019-06-20T10:50:47.733Z,13.43
2019-06-20T10:51:47.596Z,13.48
2019-06-20T10:52:48.016Z,13.47
2019-06-20T10:53:47.186Z,13.39
2019-06-20T10:54:47.101Z,13.46
2019-06-20T10:55:47.033Z,13.53
2019-06-20T10:56:47.235Z,13.55
2019-06-20T10:57:47.045Z,13.54
2019-06-20T10:58:46.969Z,13.53
2019-06-20T10:59:46.988Z,13.59
2019-06-20T11:00:48.280Z,13.54
2019-06-20T11:01:48.269Z,13.55
2019-06-20T11:02:47.080Z,13.57
2019-06-20T11:03:47.801Z,13.62
2019-06-20T11:04:47.751Z,13.71
2019-06-20T11:05:48.114Z,13.73
2019-06-20T11:06:47.601Z,13.75
2019-06-20T11:07:47.616Z,13.87
2019-06-20T11:08:47.255Z,14.04
2019-06-20T11:09:47.143Z,14.23
2019-06-20T11:10:47.216Z,14.27
2019-06-20T11:11:47.082Z,14.04
2019-06-20T11:12:52.979Z,13.96
2019-06-20T11:13:48.584Z,14.08
2019-06-20T11:14:46.784Z,14.29
2019-06-20T11:15:46.777Z,14.20
2019-06-20T11:16:47.171Z,14.26
2019-06-20T11:17:47.128Z,14.29
2019-06-20T11:18:46.742Z,14.12
2019-06-20T11:19:48.047Z,14.27
2019-06-20T11:20:46.731Z,14.34
2019-06-20T11:21:47.725Z,14.42
2019-06-20T11:22:47.782Z,14.53
2019-06-20T11:23:47.441Z,14.80
2019-06-20T11:24:47.446Z,14.63
2019-06-20T11:25:46.736Z,14.64
2019-06-20T11:26:47.862Z,14.90
2019-06-20T11:27:47.293Z,15.01
2019-06-20T11:28:46.631Z,15.41
2019-06-20T11:29:46.634Z,15.51
2019-06-20T11:30:58.159Z,15.60
2019-06-20T11:31:48.264Z,15.59
2019-06-20T11:32:48.603Z,15.60
2019-06-20T11:33:46.579Z,15.48
2019-06-20T11:34:47.540Z,15.44
2019-06-20T11:35:47.892Z,15.76
2019-06-20T11:36:46.815Z,15.86
2019-06-20T11:37:47.237Z,15.91
2019-06-20T11:38:46.909Z,15.70
2019-06-20T11:39:47.456Z,15.96
2019-06-20T11:40:46.534Z,16.17
2019-06-20T11:41:46.503Z,16.42
2019-06-20T11:42:46.923Z,16.63
2019-06-20T11:43:46.882Z,16.48
2019-06-20T11:44:47.483Z,16.66
2019-06-20T11:45:47.216Z,17.06
2019-06-20T11:46:47.137Z,17.25
2019-06-20T11:47:47.393Z,17.17
2019-06-20T11:48:47.100Z,17.35
2019-06-20T11:49:46.994Z,17.22
2019-06-20T11:50:46.625Z,17.27
2019-06-20T11:51:46.401Z,17.54
2019-06-20T11:52:46.374Z,17.33
2019-06-20T11:53:46.409Z,17.39
2019-06-20T11:54:46.372Z,17.57
2019-06-20T11:55:46.345Z,17.33
2019-06-20T11:56:46.323Z,17.17
2019-06-20T11:57:46.311Z,17.42
2019-06-20T11:58:46.301Z,17.84
2019-06-20T11:59:46.341Z,18.14
2019-06-20T12:01:02.454Z,18.47
2019-06-20T12:01:47.360Z,18.29
2019-06-20T12:02:46.326Z,18.02
2019-06-20T12:03:46.711Z,17.79
2019-06-20T12:04:47.105Z,17.99
2019-06-20T12:05:47.284Z,18.05
2019-06-20T12:06:47.169Z,18.11
2019-06-20T12:07:47.875Z,17.81
2019-06-20T12:08:46.808Z,18.05
2019-06-20T12:09:46.567Z,17.79
2019-06-20T12:10:47.322Z,17.55
2019-06-20T12:11:46.798Z,17.36
2019-06-20T12:12:46.918Z,17.42
2019-06-20T12:13:46.501Z,17.57
2019-06-20T12:14:46.784Z,17.71
2019-06-20T12:15:46.675Z,17.73
2019-06-20T12:16:46.439Z,17.96
2019-06-20T12:17:47.152Z,18.04
2019-06-20T12:18:47.235Z,18.07
2019-06-20T12:19:46.710Z,17.91
2019-06-20T12:20:46.816Z,18.02
2019-06-20T12:21:46.920Z,18.34
2019-06-20T12:22:46.647Z,18.57
2019-06-20T12:23:46.850Z,18.49
2019-06-20T12:24:46.698Z,18.51
2019-06-20T12:25:46.575Z,18.10
2019-06-20T12:26:46.820Z,17.83
2019-06-20T12:27:47.513Z,17.91
2019-06-20T12:28:46.650Z,17.81
2019-06-20T12:29:46.524Z,17.96
2019-06-20T12:30:45.947Z,18.07
2019-06-20T12:31:45.963Z,18.32
2019-06-20T12:32:46.860Z,18.13
2019-06-20T12:33:47.173Z,17.95
2019-06-20T12:34:46.609Z,18.17
2019-06-20T12:35:46.716Z,18.32
2019-06-20T12:36:46.632Z,18.10
2019-06-20T12:37:46.010Z,18.35
2019-06-20T12:38:46.255Z,18.39
2019-06-20T12:39:46.368Z,18.53
2019-06-20T12:40:46.223Z,18.46
2019-06-20T12:41:45.862Z,18.34
2019-06-20T12:42:46.830Z,18.32
2019-06-20T12:43:46.311Z,18.51
2019-06-20T12:44:46.072Z,18.90
2019-06-20T12:45:47.136Z,18.72
2019-06-20T12:46:46.984Z,18.90
2019-06-20T12:47:46.250Z,18.87
2019-06-20T12:48:46.959Z,19.06
2019-06-20T12:49:45.925Z,19.31
2019-06-20T12:50:45.736Z,19.47
2019-06-20T12:51:46.707Z,19.43
2019-06-20T12:52:47.163Z,19.43